Time;durP1;ratioP1;P1;durP2;ratioP2;P2;SDS_P1;SDS_P2;PMS_P1;PMS_P2;Temp;Humidity;BMP_temperature;BMP_pressure;BME280_temperature;BME280_humidity;BME280_pressure;Samples;Min_cycle;Max_cycle;Signal;HPM_P1;HPM_P2
2023/12/11 00:00:11;;;;;;;1.20;0.57;;;;;;;7.96;100.00;153405.53;5042491;28;20828;-75
2023/12/11 00:02:38;;;;;;;1.30;0.50;;;;;;;7.96;100.00;153404.22;5038484;28;20470;-75
2023/12/11 00:05:05;;;;;;;1.20;0.80;;;;;;;7.94;100.00;153399.09;5041126;28;20479;-75
2023/12/11 00:07:33;;;;;;;1.47;0.77;;;;;;;7.95;100.00;153402.94;5031130;28;20457;-75
2023/12/11 00:09:59;;;;;;;1.00;0.60;;;;;;;7.97;100.00;153406.78;5027935;28;20970;-75
2023/12/11 00:12:26;;;;;;;1.43;0.70;;;;;;;7.97;100.00;153406.78;5029196;28;20521;-75
2023/12/11 00:14:53;;;;;;;2.83;0.70;;;;;;;7.97;100.00;153406.78;5042114;28;20542;-75
2023/12/11 00:17:19;;;;;;;1.30;0.80;;;;;;;7.96;100.00;153405.53;5048443;28;20443;-75
2023/12/11 00:19:46;;;;;;;1.10;0.60;;;;;;;7.94;100.00;153399.09;5041785;28;20501;-75
2023/12/11 00:22:13;;;;;;;2.00;1.10;;;;;;;7.94;100.00;153400.34;5029680;28;20447;-75
2023/12/11 00:24:40;;;;;;;2.40;0.80;;;;;;;7.91;100.00;153391.31;5046861;28;20824;-75
2023/12/11 00:27:07;;;;;;;2.10;1.10;;;;;;;7.89;100.00;153387.41;5047678;28;20460;-75
2023/12/11 00:29:33;;;;;;;1.30;0.80;;;;;;;7.87;100.00;153380.97;5026603;28;20879;-75
2023/12/11 00:32:00;;;;;;;2.50;0.70;;;;;;;7.84;100.00;153373.19;5044773;28;20458;-75
2023/12/11 00:34:27;;;;;;;2.70;0.80;;;;;;;7.80;100.00;153362.88;5043943;28;20516;-75
2023/12/11 00:36:53;;;;;;;1.30;0.73;;;;;;;7.78;100.00;153358.97;5047864;28;20537;-75
2023/12/11 00:39:20;;;;;;;1.23;0.70;;;;;;;7.76;100.00;153353.84;5060147;28;20812;-75
2023/12/11 00:41:47;;;;;;;2.20;0.70;;;;;;;7.78;100.00;153357.72;5051641;28;20509;-75
2023/12/11 00:44:14;;;;;;;2.00;0.70;;;;;;;7.77;100.00;153356.44;5029642;28;20467;-75
2023/12/11 00:46:41;;;;;;;1.10;0.90;;;;;;;7.77;100.00;153355.13;5032550;28;20526;-75
2023/12/11 00:49:07;;;;;;;2.17;0.87;;;;;;;7.79;100.00;153360.28;5043726;28;20435;-75
2023/12/11 00:51:34;;;;;;;1.20;0.77;;;;;;;7.79;100.00;153361.59;5058890;28;20431;-75
2023/12/11 00:54:00;;;;;;;1.60;0.80;;;;;;;7.79;100.00;153361.59;5027621;28;20451;-75
2023/12/11 00:56:27;;;;;;;2.13;0.50;;;;;;;7.81;100.00;153365.50;5021586;28;20458;-75
2023/12/11 00:58:55;;;;;;;1.23;0.60;;;;;;;7.85;100.00;153377.09;5051575;28;20439;-75
2023/12/11 01:01:21;;;;;;;1.20;0.80;;;;;;;7.87;100.00;153380.97;5050560;28;21280;-75
2023/12/11 01:03:48;;;;;;;1.00;0.60;;;;;;;7.88;100.00;153383.56;5046095;28;20497;-75
2023/12/11 01:06:14;;;;;;;1.73;0.73;;;;;;;7.88;100.00;153384.88;5040508;28;20479;-75
2023/12/11 01:08:41;;;;;;;1.00;0.60;;;;;;;7.88;100.00;153384.88;5034672;28;20435;-75
2023/12/11 01:11:08;;;;;;;1.17;0.60;;;;;;;7.91;100.00;153392.63;5043939;28;20440;-75
2023/12/11 01:13:35;;;;;;;1.10;0.60;;;;;;;7.92;100.00;153393.88;5018902;28;21005;-75
2023/12/11 01:16:03;;;;;;;2.60;0.90;;;;;;;7.95;100.00;153401.63;5017991;28;20561;-75
2023/12/11 01:18:29;;;;;;;1.60;0.60;;;;;;;7.95;100.00;153401.63;5015183;28;20448;-74
2023/12/11 01:20:56;;;;;;;1.23;0.63;;;;;;;7.96;100.00;153404.22;5048365;28;20818;-75
2023/12/11 01:23:22;;;;;;;0.90;0.40;;;;;;;7.97;100.00;153406.78;5042993;28;20532;-75
2023/12/11 01:25:49;;;;;;;1.00;0.60;;;;;;;7.97;100.00;153406.78;5028739;28;20455;-75
2023/12/11 01:28:15;;;;;;;1.10;0.60;;;;;;;7.99;100.00;153413.25;5042438;28;20516;-75
2023/12/11 01:30:42;;;;;;;1.10;0.60;;;;;;;7.98;100.00;153410.69;5041225;28;20888;-75
2023/12/11 01:33:10;;;;;;;1.27;0.90;;;;;;;7.99;100.00;153413.25;5026115;28;20459;-75
2023/12/11 01:35:37;;;;;;;2.10;0.70;;;;;;;8.00;100.00;153414.53;5045757;28;20486;-75
2023/12/11 01:38:03;;;;;;;1.63;0.70;;;;;;;8.01;100.00;153415.84;5050932;28;20767;-75
2023/12/11 01:40:30;;;;;;;1.10;0.70;;;;;;;8.03;100.00;153422.31;5022772;28;20895;-75
2023/12/11 01:43:11;;;;;;;1.73;0.50;;;;;;;8.06;100.00;153430.06;5037538;28;20458;-75
2023/12/11 01:45:37;;;;;;;1.10;0.60;;;;;;;8.04;100.00;153424.91;5047777;28;20439;-74
2023/12/11 01:48:04;;;;;;;0.90;0.60;;;;;;;8.02;100.00;153419.75;5048910;28;20516;-74
2023/12/11 01:50:32;;;;;;;1.00;0.60;;;;;;;8.03;100.00;153422.31;5042605;28;20455;-75
2023/12/11 01:52:59;;;;;;;1.10;0.50;;;;;;;8.02;100.00;153419.75;5044620;28;20455;-75
2023/12/11 01:55:26;;;;;;;1.77;0.80;;;;;;;8.03;100.00;153421.00;5042168;28;20449;-75
2023/12/11 01:57:53;;;;;;;1.07;0.50;;;;;;;8.05;100.00;153426.22;5019559;28;20452;-75
2023/12/11 02:00:20;;;;;;;0.80;0.40;;;;;;;8.04;100.00;153423.63;5037721;28;20909;-75
2023/12/11 02:02:47;;;;;;;2.07;0.63;;;;;;;8.03;100.00;153422.31;5035484;28;20996;-75
2023/12/11 02:05:13;;;;;;;1.00;0.40;;;;;;;8.04;100.00;153424.91;5007584;28;20990;-75
2023/12/11 02:07:41;;;;;;;1.03;0.40;;;;;;;8.03;100.00;153421.00;5016493;28;20460;-75
2023/12/11 02:10:10;;;;;;;0.97;0.60;;;;;;;8.02;100.00;153419.75;5018085;28;20430;-75
2023/12/11 02:12:36;;;;;;;0.90;0.40;;;;;;;8.02;100.00;153419.75;5030499;28;20459;-74
2023/12/11 02:15:03;;;;;;;1.20;0.70;;;;;;;8.03;100.00;153422.31;5024205;28;20436;-75
2023/12/11 02:17:29;;;;;;;1.00;0.40;;;;;;;8.04;100.00;153424.91;5002736;28;20460;-75
2023/12/11 02:19:56;;;;;;;1.20;0.40;;;;;;;8.06;100.00;153428.75;5020952;28;20822;-75
2023/12/11 02:22:24;;;;;;;0.87;0.40;;;;;;;8.05;100.00;153427.47;5001495;28;20452;-75
2023/12/11 02:24:57;;;;;;;1.07;0.63;;;;;;;8.07;100.00;153432.66;5030069;28;20557;-74
2023/12/11 02:27:25;;;;;;;2.13;0.40;;;;;;;8.08;100.00;153435.22;4997149;28;20484;-74
2023/12/11 02:29:54;;;;;;;0.93;0.30;;;;;;;8.08;100.00;153433.94;5017933;28;20445;-74
2023/12/11 02:32:21;;;;;;;1.00;0.50;;;;;;;8.09;100.00;153436.53;5034972;28;20442;-83
2023/12/11 02:34:49;;;;;;;0.80;0.40;;;;;;;8.10;100.00;153440.38;5030957;28;20460;-83
2023/12/11 02:37:15;;;;;;;1.00;0.30;;;;;;;8.10;100.00;153440.38;5026723;28;20459;-83
2023/12/11 02:39:42;;;;;;;1.23;0.50;;;;;;;8.10;100.00;153440.38;5000840;28;20432;-83
2023/12/11 02:42:08;;;;;;;0.83;0.33;;;;;;;8.10;100.00;153439.13;5004196;28;20447;-83
2023/12/11 02:44:36;;;;;;;0.90;0.40;;;;;;;8.09;100.00;153437.81;5020752;28;20479;-83
2023/12/11 02:47:03;;;;;;;0.70;0.30;;;;;;;8.10;100.00;153440.38;5013012;28;20453;-83
2023/12/11 02:49:29;;;;;;;0.90;0.47;;;;;;;8.11;100.00;153443.00;5016748;28;20439;-83
2023/12/11 02:51:56;;;;;;;0.70;0.33;;;;;;;8.11;100.00;153443.00;5018221;28;20961;-83
2023/12/11 02:54:22;;;;;;;1.10;0.40;;;;;;;8.12;100.00;153444.28;5018800;28;20466;-83
2023/12/11 02:56:49;;;;;;;1.47;0.70;;;;;;;8.12;100.00;153444.28;5028395;28;20875;-83
2023/12/11 02:59:15;;;;;;;1.20;0.50;;;;;;;8.13;100.00;153446.88;5025945;28;20456;-82
2023/12/11 03:01:43;;;;;;;0.70;0.30;;;;;;;8.13;100.00;153448.13;5024953;28;20930;-83
2023/12/11 03:04:09;;;;;;;1.47;0.40;;;;;;;8.15;100.00;153453.34;5038046;28;20556;-83
2023/12/11 03:06:36;;;;;;;0.80;0.47;;;;;;;8.15;100.00;153453.34;5033283;28;20447;-83
2023/12/11 03:09:03;;;;;;;1.53;0.40;;;;;;;8.14;100.00;153450.75;5043630;28;20451;-83
2023/12/11 03:11:29;;;;;;;0.90;0.50;;;;;;;8.14;100.00;153450.75;5036407;28;20451;-83
2023/12/11 03:13:56;;;;;;;0.77;0.30;;;;;;;8.16;100.00;153454.59;5028371;28;20443;-83
2023/12/11 03:16:22;;;;;;;1.00;0.50;;;;;;;8.16;100.00;153454.59;5048635;28;20447;-83
2023/12/11 03:18:50;;;;;;;1.10;0.53;;;;;;;8.16;100.00;153455.91;5034078;28;20462;-83
2023/12/11 03:21:17;;;;;;;0.70;0.30;;;;;;;8.17;100.00;153458.50;5059119;28;20493;-83
2023/12/11 03:23:44;;;;;;;0.93;0.47;;;;;;;8.16;100.00;153455.91;5041373;28;20541;-83
2023/12/11 03:26:11;;;;;;;0.70;0.33;;;;;;;8.18;100.00;153459.81;5028095;28;20452;-75
2023/12/11 03:28:38;;;;;;;0.90;0.50;;;;;;;8.18;100.00;153461.06;5041088;28;20562;-75
2023/12/11 03:31:05;;;;;;;0.97;0.40;;;;;;;8.21;100.00;153468.81;5026275;28;20447;-74
2023/12/11 03:33:31;;;;;;;1.00;0.50;;;;;;;8.21;100.00;153468.81;5051688;28;20449;-74
2023/12/11 03:35:59;;;;;;;1.10;0.60;;;;;;;8.22;100.00;153470.13;5025365;28;20444;-74
2023/12/11 03:38:25;;;;;;;0.97;0.50;;;;;;;8.21;100.00;153468.81;5025892;28;20452;-74
2023/12/11 03:40:52;;;;;;;1.20;0.60;;;;;;;8.21;100.00;153467.50;5041080;28;20504;-74
2023/12/11 03:43:18;;;;;;;1.00;0.50;;;;;;;8.21;100.00;153468.81;5046085;28;20818;-74
2023/12/11 03:45:45;;;;;;;1.93;0.50;;;;;;;8.21;100.00;153468.81;5037569;28;20479;-75
2023/12/11 03:48:11;;;;;;;0.70;0.33;;;;;;;8.22;100.00;153471.44;5028150;28;20828;-75
2023/12/11 03:50:38;;;;;;;0.80;0.40;;;;;;;8.23;100.00;153474.03;5045447;28;20462;-74
2023/12/11 03:53:06;;;;;;;0.80;0.40;;;;;;;8.24;100.00;153475.28;5029312;28;20999;-74
2023/12/11 03:55:32;;;;;;;0.87;0.50;;;;;;;8.23;100.00;153474.03;5054174;28;20485;-74
2023/12/11 03:57:58;;;;;;;0.97;0.30;;;;;;;8.24;100.00;153476.59;5035922;28;20529;-75
2023/12/11 04:00:25;;;;;;;2.37;0.40;;;;;;;8.26;100.00;153480.50;5026783;28;20454;-74
2023/12/11 04:02:51;;;;;;;0.80;0.40;;;;;;;8.26;100.00;153481.75;5045740;28;20496;-75
2023/12/11 04:05:18;;;;;;;0.90;0.50;;;;;;;8.28;100.00;153485.69;5025170;28;20472;-74
2023/12/11 04:07:44;;;;;;;0.97;0.47;;;;;;;8.26;100.00;153481.75;5041135;28;20477;-74
2023/12/11 04:10:11;;;;;;;0.70;0.23;;;;;;;8.27;100.00;153484.41;5025396;28;20459;-74
2023/12/11 04:12:38;;;;;;;0.70;0.30;;;;;;;8.26;100.00;153481.75;5023815;28;20495;-74
2023/12/11 04:15:05;;;;;;;0.83;0.40;;;;;;;8.24;100.00;153476.59;5023775;28;20984;-75
2023/12/11 04:17:32;;;;;;;0.80;0.50;;;;;;;8.23;100.00;153472.72;5044087;28;20803;-83
2023/12/11 04:19:58;;;;;;;0.97;0.53;;;;;;;8.21;100.00;153467.50;5046698;28;20458;-82
2023/12/11 04:22:25;;;;;;;1.20;0.40;;;;;;;8.19;100.00;153463.66;5043587;28;20465;-82
2023/12/11 04:24:51;;;;;;;0.70;0.37;;;;;;;8.17;100.00;153458.50;5043201;28;20471;-82
2023/12/11 04:27:19;;;;;;;0.80;0.30;;;;;;;8.18;100.00;153461.06;5050545;28;20889;-82
2023/12/11 04:29:46;;;;;;;0.80;0.40;;;;;;;8.17;100.00;153458.50;5048143;28;20442;-82
2023/12/11 04:32:12;;;;;;;0.80;0.30;;;;;;;8.16;100.00;153455.91;5036637;28;20454;-82
2023/12/11 04:34:39;;;;;;;0.73;0.30;;;;;;;8.16;100.00;153455.91;5040671;28;20458;-82
2023/12/11 04:37:06;;;;;;;0.70;0.30;;;;;;;8.14;100.00;153450.75;5037481;28;20451;-82
2023/12/11 04:39:32;;;;;;;0.80;0.50;;;;;;;8.14;100.00;153450.75;5033367;28;20441;-82
2023/12/11 04:41:58;;;;;;;0.90;0.50;;;;;;;8.11;100.00;153443.00;5050525;28;20844;-82
2023/12/11 04:44:26;;;;;;;0.80;0.33;;;;;;;8.10;100.00;153439.13;5047901;28;20482;-82
2023/12/11 04:46:53;;;;;;;0.80;0.50;;;;;;;8.09;100.00;153436.53;5029582;28;20458;-83
2023/12/11 04:49:19;;;;;;;0.90;0.50;;;;;;;8.06;100.00;153430.06;5055029;28;20477;-82
2023/12/11 04:51:46;;;;;;;0.90;0.43;;;;;;;8.05;100.00;153427.47;5046719;28;20447;-82
2023/12/11 04:54:13;;;;;;;1.00;0.70;;;;;;;8.02;100.00;153419.75;5020570;28;20461;-83
2023/12/11 04:56:40;;;;;;;0.77;0.30;;;;;;;8.03;100.00;153422.31;5034600;28;20461;-82
2023/12/11 04:59:06;;;;;;;1.00;0.50;;;;;;;8.03;100.00;153422.31;5048076;28;20486;-83
2023/12/11 05:01:35;;;;;;;0.83;0.37;;;;;;;8.01;100.00;153417.16;5029770;28;20496;-83
2023/12/11 05:04:01;;;;;;;0.80;0.57;;;;;;;7.99;100.00;153412.00;5045642;28;20475;-83
2023/12/11 05:06:28;;;;;;;1.00;0.57;;;;;;;7.96;100.00;153405.53;5029303;28;20474;-82
2023/12/11 05:08:54;;;;;;;1.00;0.50;;;;;;;7.96;100.00;153404.22;5052164;28;20447;-82
2023/12/11 05:11:21;;;;;;;1.30;0.70;;;;;;;7.93;100.00;153397.78;5040887;28;20442;-82
2023/12/11 05:13:47;;;;;;;0.93;0.57;;;;;;;7.92;100.00;153393.88;5027850;28;20457;-82
2023/12/11 05:16:14;;;;;;;0.90;0.40;;;;;;;7.89;100.00;153387.41;5051436;28;20483;-83
2023/12/11 05:18:42;;;;;;;2.50;0.70;;;;;;;7.88;100.00;153383.56;5042641;28;22011;-82
2023/12/11 05:21:09;;;;;;;1.13;0.60;;;;;;;7.88;100.00;153383.56;5045138;28;20546;-82
2023/12/11 05:23:36;;;;;;;1.17;0.53;;;;;;;7.88;100.00;153383.56;5028495;28;20439;-82
2023/12/11 05:26:03;;;;;;;1.40;0.60;;;;;;;7.87;100.00;153380.97;5029842;28;20474;-82
2023/12/11 05:28:29;;;;;;;1.30;0.50;;;;;;;7.85;100.00;153377.09;5023438;28;20460;-82
2023/12/11 05:30:56;;;;;;;0.80;0.50;;;;;;;7.84;100.00;153374.50;5038517;28;20483;-82
2023/12/11 05:33:23;;;;;;;2.03;0.50;;;;;;;7.86;100.00;153378.41;5028946;28;20459;-82
2023/12/11 05:35:50;;;;;;;1.77;0.50;;;;;;;7.85;100.00;153375.81;5030746;28;20454;-82
2023/12/11 05:38:17;;;;;;;4.20;0.60;;;;;;;7.84;100.00;153373.19;5030753;28;20451;-82
2023/12/11 05:40:45;;;;;;;1.17;0.70;;;;;;;7.84;100.00;153373.19;5038736;28;20455;-82
2023/12/11 05:43:11;;;;;;;1.10;0.50;;;;;;;7.84;100.00;153373.19;5027950;28;20501;-82
2023/12/11 05:45:38;;;;;;;1.00;0.67;;;;;;;7.85;100.00;153375.81;5030035;28;20470;-82
2023/12/11 05:48:05;;;;;;;0.90;0.50;;;;;;;7.84;100.00;153373.19;5042138;28;20463;-82
2023/12/11 05:50:32;;;;;;;1.53;0.57;;;;;;;7.83;100.00;153370.66;5028791;28;20448;-82
2023/12/11 05:53:00;;;;;;;1.20;0.70;;;;;;;7.82;100.00;153369.34;5042151;28;20981;-82
2023/12/11 05:55:26;;;;;;;0.90;0.60;;;;;;;7.84;100.00;153373.19;5054872;28;20522;-83
2023/12/11 05:57:53;;;;;;;1.90;0.63;;;;;;;7.84;100.00;153373.19;5047593;28;20463;-82
2023/12/11 06:00:20;;;;;;;0.93;0.50;;;;;;;7.84;100.00;153373.19;5023913;28;20485;-82
2023/12/11 06:02:46;;;;;;;1.03;0.60;;;;;;;7.85;100.00;153375.81;5042028;28;20463;-81
2023/12/11 06:05:13;;;;;;;2.60;0.90;;;;;;;7.84;100.00;153373.19;5036197;28;20471;-82
2023/12/11 06:07:40;;;;;;;1.00;0.50;;;;;;;7.83;100.00;153371.94;5038571;28;20482;-82
2023/12/11 06:10:09;;;;;;;1.30;0.70;;;;;;;7.84;100.00;153374.50;5021213;28;20447;-82
2023/12/11 06:12:35;;;;;;;1.57;0.70;;;;;;;7.83;100.00;153371.94;5039045;28;20858;-83
2023/12/11 06:15:02;;;;;;;2.20;0.70;;;;;;;7.86;100.00;153378.41;5036096;28;20451;-83
2023/12/11 06:17:28;;;;;;;2.50;0.70;;;;;;;7.86;100.00;153378.41;5041329;28;20709;-83
2023/12/11 06:19:55;;;;;;;2.07;0.60;;;;;;;7.86;100.00;153378.41;5020174;28;20464;-83
2023/12/11 06:22:21;;;;;;;1.10;0.60;;;;;;;7.85;100.00;153377.09;5038975;28;20516;-83
2023/12/11 06:24:48;;;;;;;1.80;0.50;;;;;;;7.87;100.00;153380.97;5042458;28;20873;-83
2023/12/11 06:27:16;;;;;;;1.43;0.80;;;;;;;7.88;100.00;153383.56;5037289;28;20513;-83
2023/12/11 06:29:42;;;;;;;1.30;0.77;;;;;;;7.88;100.00;153383.56;5036813;28;20793;-82
2023/12/11 06:32:09;;;;;;;1.40;0.70;;;;;;;7.89;100.00;153386.13;5027271;28;20520;-83
2023/12/11 06:34:36;;;;;;;1.27;0.80;;;;;;;7.88;100.00;153383.56;5040590;28;20497;-83
2023/12/11 06:37:02;;;;;;;2.23;1.00;;;;;;;7.87;100.00;153380.97;5040560;28;20451;-74
2023/12/11 06:39:42;;;;;;;2.37;0.80;;;;;;;7.87;100.00;153382.25;5044897;28;20490;-75
2023/12/11 06:42:09;;;;;;;1.77;0.90;;;;;;;7.86;100.00;153378.41;5037419;28;20457;-83
2023/12/11 06:44:37;;;;;;;2.17;1.10;;;;;;;7.86;100.00;153379.66;5018632;28;20458;-81
2023/12/11 06:47:04;;;;;;;1.67;0.80;;;;;;;7.87;100.00;153380.97;5035886;28;20470;-83
2023/12/11 06:49:29;;;;;;;1.87;0.60;;;;;;;7.88;100.00;153383.56;5037655;28;20462;-83
2023/12/11 06:51:56;;;;;;;1.30;0.70;;;;;;;7.89;100.00;153386.13;5038992;28;20461;-83
2023/12/11 06:54:23;;;;;;;3.20;0.70;;;;;;;7.88;100.00;153383.56;5041346;28;20228;-83
2023/12/11 06:56:49;;;;;;;1.07;0.60;;;;;;;7.87;100.00;153382.25;5008896;28;20471;-83
2023/12/11 06:59:16;;;;;;;1.20;0.60;;;;;;;7.88;100.00;153383.56;5041373;28;20455;-83
2023/12/11 07:01:44;;;;;;;1.30;0.80;;;;;;;7.88;100.00;153384.88;5041348;28;20601;-84
2023/12/11 07:04:10;;;;;;;0.90;0.63;;;;;;;7.88;100.00;153383.56;5030289;28;20486;-83
2023/12/11 07:06:37;;;;;;;1.37;0.90;;;;;;;7.89;100.00;153386.13;5036151;28;20472;-83
2023/12/11 07:09:03;;;;;;;2.30;0.80;;;;;;;7.89;100.00;153386.13;5038000;28;20998;-83
2023/12/11 07:11:30;;;;;;;1.10;0.83;;;;;;;7.88;100.00;153384.88;5020481;28;20456;-83
2023/12/11 07:13:56;;;;;;;1.93;0.80;;;;;;;7.89;100.00;153386.13;5039034;28;20971;-83
2023/12/11 07:16:24;;;;;;;1.53;0.70;;;;;;;7.88;100.00;153383.56;5003316;28;20442;-83
2023/12/11 07:18:52;;;;;;;2.33;0.90;;;;;;;7.89;100.00;153387.41;5035141;28;20453;-83
2023/12/11 07:21:19;;;;;;;1.00;0.70;;;;;;;7.90;100.00;153388.72;5017006;28;20503;-82
2023/12/11 07:23:48;;;;;;;1.60;1.00;;;;;;;7.90;100.00;153388.72;5037255;28;20682;-82
2023/12/11 07:26:14;;;;;;;1.40;0.93;;;;;;;7.93;100.00;153396.47;5037293;28;20592;-83
2023/12/11 07:28:41;;;;;;;2.83;1.03;;;;;;;7.92;100.00;153393.88;5034600;28;20483;-83
2023/12/11 07:31:07;;;;;;;1.50;1.10;;;;;;;7.92;100.00;153393.88;5035711;28;20443;-83
2023/12/11 07:33:34;;;;;;;1.30;1.00;;;;;;;7.93;100.00;153397.78;5034099;28;20824;-83
2023/12/11 07:36:02;;;;;;;3.10;1.17;;;;;;;7.95;100.00;153402.94;5035690;28;20466;-83
2023/12/11 07:38:28;;;;;;;1.67;0.90;;;;;;;7.95;100.00;153401.63;5035830;28;20465;-83
2023/12/11 07:40:57;;;;;;;2.03;1.00;;;;;;;7.95;100.00;153402.94;5016322;28;20507;-83
2023/12/11 07:43:23;;;;;;;4.00;1.37;;;;;;;7.98;100.00;153409.41;5034453;28;20472;-83
2023/12/11 07:45:50;;;;;;;1.80;1.23;;;;;;;7.98;100.00;153410.69;5015783;28;20525;-83
2023/12/11 07:48:17;;;;;;;1.20;0.80;;;;;;;7.98;100.00;153409.41;5032051;28;20820;-83
2023/12/11 07:50:43;;;;;;;1.40;1.00;;;;;;;7.99;100.00;153412.00;5017618;28;20487;-83
2023/12/11 07:53:11;;;;;;;1.17;0.70;;;;;;;7.99;100.00;153413.25;5017271;28;20985;-83
2023/12/11 07:55:37;;;;;;;1.40;0.87;;;;;;;7.99;100.00;153413.25;5028683;28;20466;-83
2023/12/11 07:58:04;;;;;;;1.33;1.00;;;;;;;8.00;100.00;153414.53;5018787;28;20454;-84
2023/12/11 08:00:31;;;;;;;1.43;0.80;;;;;;;8.00;100.00;153414.53;5022514;28;20573;-81
2023/12/11 08:02:58;;;;;;;2.40;0.90;;;;;;;8.02;100.00;153418.44;5035726;28;20459;-81
2023/12/11 08:05:24;;;;;;;1.07;0.73;;;;;;;8.01;100.00;153417.16;5036184;28;20979;-82
2023/12/11 08:07:51;;;;;;;2.70;1.00;;;;;;;8.00;100.00;153414.53;5041642;28;20462;-82
2023/12/11 08:10:19;;;;;;;1.97;1.13;;;;;;;7.99;100.00;153412.00;5038070;28;20451;-82
2023/12/11 08:12:49;;;;;;;1.00;0.70;;;;;;;7.99;100.00;153412.00;5038053;28;20455;-82
2023/12/11 08:15:16;;;;;;;4.27;1.00;;;;;;;8.02;100.00;153418.44;5026708;28;20543;-81
2023/12/11 08:17:42;;;;;;;2.27;0.90;;;;;;;8.04;100.00;153423.63;5038844;28;20456;-82
2023/12/11 08:20:10;;;;;;;1.63;0.87;;;;;;;8.07;100.00;153431.38;5033322;28;20451;-81
2023/12/11 08:22:37;;;;;;;2.23;1.10;;;;;;;8.10;100.00;153440.38;5036366;28;20505;-82
2023/12/11 08:25:03;;;;;;;1.23;0.80;;;;;;;8.11;100.00;153443.00;5018109;28;20475;-82
2023/12/11 08:27:31;;;;;;;1.20;0.70;;;;;;;8.13;100.00;153448.13;5033582;28;20590;-82
2023/12/11 08:29:58;;;;;;;1.50;1.00;;;;;;;8.15;100.00;153452.03;5036439;28;20484;-82
2023/12/11 08:32:25;;;;;;;1.30;0.70;;;;;;;8.18;100.00;153461.06;5018015;28;20462;-82
2023/12/11 08:34:51;;;;;;;2.20;0.70;;;;;;;8.20;100.00;153466.28;5024175;28;20465;-82
2023/12/11 08:37:18;;;;;;;2.70;0.80;;;;;;;8.21;100.00;153468.81;5034846;28;20459;-82
2023/12/11 08:39:44;;;;;;;1.70;1.00;;;;;;;8.24;100.00;153476.59;5034784;28;20447;-81
2023/12/11 08:42:11;;;;;;;1.50;0.83;;;;;;;8.26;100.00;153480.50;5021800;28;20831;-82
2023/12/11 08:44:39;;;;;;;1.47;0.90;;;;;;;8.29;100.00;153489.56;5016939;28;20460;-82
2023/12/11 08:47:05;;;;;;;2.27;0.83;;;;;;;8.33;100.00;153498.63;5034877;28;22029;-81
2023/12/11 08:49:32;;;;;;;2.10;1.30;;;;;;;8.35;100.00;153505.06;5021439;28;20490;-81
2023/12/11 08:52:00;;;;;;;1.70;1.00;;;;;;;8.36;100.00;153507.69;5018994;28;20458;-82
2023/12/11 08:54:26;;;;;;;1.70;0.80;;;;;;;8.37;100.00;153510.22;5029781;28;20968;-81
2023/12/11 08:56:53;;;;;;;1.20;0.77;;;;;;;8.39;100.00;153515.38;5020814;28;20454;-81
2023/12/11 08:59:20;;;;;;;1.10;0.80;;;;;;;8.41;100.00;153520.59;5019413;28;20463;-82
2023/12/11 09:01:48;;;;;;;2.90;1.00;;;;;;;8.43;100.00;153525.75;5003940;28;20595;-82
2023/12/11 09:04:15;;;;;;;2.03;1.47;;;;;;;8.45;100.00;153529.63;5041417;28;20985;-83
2023/12/11 09:06:42;;;;;;;1.27;0.77;;;;;;;8.48;100.00;153537.38;5026061;28;20467;-82
2023/12/11 09:09:08;;;;;;;2.20;1.10;;;;;;;8.50;100.00;153542.53;5040885;28;20446;-83
2023/12/11 09:11:37;;;;;;;2.57;1.17;;;;;;;8.53;100.00;153551.59;5038998;28;20608;-83
2023/12/11 09:14:06;;;;;;;4.10;0.93;;;;;;;8.55;100.00;153555.50;5037863;28;20930;-83
2023/12/11 09:16:36;;;;;;;1.30;0.90;;;;;;;8.57;100.00;153560.66;5047071;28;20806;-83
2023/12/11 09:19:04;;;;;;;1.87;0.90;;;;;;;8.61;100.00;153570.97;5045573;28;20982;-83
2023/12/11 09:21:31;;;;;;;1.77;1.00;;;;;;;8.63;100.00;153574.88;5023267;28;20459;-85
2023/12/11 09:24:01;;;;;;;1.60;0.97;;;;;;;8.66;100.00;153582.66;5026752;28;20822;-82
2023/12/11 09:26:28;;;;;;;1.47;0.90;;;;;;;8.71;100.00;153595.56;5038852;28;20482;-83
2023/12/11 09:28:54;;;;;;;2.77;1.20;;;;;;;8.73;100.00;153602.03;5038574;28;20529;-82
2023/12/11 09:31:21;;;;;;;1.60;0.77;;;;;;;8.74;100.00;153603.28;5037422;28;20454;-83
2023/12/11 09:33:47;;;;;;;1.63;1.00;;;;;;;8.74;100.00;153603.28;5039457;28;20814;-83
2023/12/11 09:36:15;;;;;;;1.90;0.80;;;;;;;8.74;100.00;153603.28;5023176;28;20831;-82
2023/12/11 09:38:43;;;;;;;1.57;0.83;;;;;;;8.74;100.00;153603.28;5042630;28;20450;-82
2023/12/11 09:41:09;;;;;;;2.53;0.93;;;;;;;8.74;100.00;153603.28;5035343;28;20452;-82
2023/12/11 09:43:36;;;;;;;1.37;0.77;;;;;;;8.77;100.00;153612.34;5052974;28;20960;-82
2023/12/11 09:46:07;;;;;;;0.80;0.50;;;;;;;8.78;100.00;153613.66;5048443;28;20482;-82
2023/12/11 09:48:34;;;;;;;2.13;0.80;;;;;;;8.80;100.00;153618.81;5038819;28;20458;-74
2023/12/11 09:51:01;;;;;;;1.30;0.70;;;;;;;8.80;100.00;153620.13;5019122;28;20456;-74
2023/12/11 09:53:31;;;;;;;2.17;0.57;;;;;;;8.81;100.00;153622.72;5033534;28;20508;-74
2023/12/11 09:55:58;;;;;;;1.27;0.77;;;;;;;8.84;100.00;153630.44;5000120;28;20459;-74
2023/12/11 09:58:25;;;;;;;1.27;0.73;;;;;;;8.86;100.00;153635.66;5024891;28;20582;-74
2023/12/11 10:01:00;;;;;;;1.33;0.67;;;;;;;8.90;100.00;153644.66;5010084;28;20854;-74
2023/12/11 10:03:27;;;;;;;0.90;0.60;;;;;;;8.93;100.00;153652.44;5036831;28;20482;-75
2023/12/11 10:05:58;;;;;;;0.97;0.70;;;;;;;8.96;100.00;153661.50;5037186;28;21214;-74
2023/12/11 10:08:24;;;;;;;2.00;0.90;;;;;;;8.99;100.00;153667.97;5040509;28;20454;-74
2023/12/11 10:11:08;;;;;;;0.93;0.57;;;;;;;9.00;100.00;153670.56;5024174;28;20450;-74
2023/12/11 10:13:35;;;;;;;1.20;0.60;;;;;;;9.08;100.00;153691.25;5042819;28;20520;-75
2023/12/11 10:16:03;;;;;;;1.60;0.73;;;;;;;9.13;100.00;153704.19;5026956;28;20705;-75
2023/12/11 10:18:29;;;;;;;2.57;0.90;;;;;;;9.19;100.00;153719.69;5043061;28;20443;-74
2023/12/11 10:21:05;;;;;;;1.17;0.60;;;;;;;9.24;100.00;153732.59;5041038;28;20996;-75
2023/12/11 10:23:41;;;;;;;1.93;0.80;;;;;;;9.31;100.00;153750.75;5023556;28;21006;-74
2023/12/11 10:26:09;;;;;;;4.13;1.07;;;;;;;9.33;100.00;153755.91;5040189;28;20498;-75
2023/12/11 10:28:36;;;;;;;1.27;0.57;;;;;;;9.39;100.00;153770.13;5038821;28;20524;-75
2023/12/11 10:31:17;;;;;;;2.17;0.57;;;;;;;9.48;100.00;153794.69;5025585;28;20456;-75
2023/12/11 10:33:48;;;;;;;1.90;0.80;;;;;;;9.59;100.00;153823.16;5045020;28;20462;-83
2023/12/11 10:36:15;;;;;;;2.70;0.77;;;;;;;9.67;100.00;153842.56;5027964;28;20487;-83
2023/12/11 10:38:43;;;;;;;2.50;0.93;;;;;;;9.72;100.00;153856.81;5045037;28;20933;-82
2023/12/11 10:41:24;;;;;;;1.27;0.70;;;;;;;9.80;100.00;153877.50;5039974;28;20457;-83
2023/12/11 10:43:51;;;;;;;4.93;1.00;;;;;;;9.82;100.00;153882.69;5039684;28;20530;-83
2023/12/11 10:46:18;;;;;;;1.50;0.77;;;;;;;9.88;100.00;153895.59;5037908;28;20470;-83
2023/12/11 10:48:44;;;;;;;1.20;0.70;;;;;;;9.93;100.00;153908.59;5040130;28;20984;-83
2023/12/11 10:51:11;;;;;;;2.20;0.70;;;;;;;9.95;100.00;153913.75;5018773;28;20462;-83
2023/12/11 10:53:37;;;;;;;0.90;0.47;;;;;;;9.97;100.00;153920.22;5020492;28;20459;-83
2023/12/11 10:56:06;;;;;;;1.40;0.67;;;;;;;10.01;100.00;153929.25;5023722;28;20905;-83
2023/12/11 10:58:34;;;;;;;1.60;0.83;;;;;;;10.00;100.00;153926.69;5041430;28;20513;-83
2023/12/11 11:01:01;;;;;;;1.97;0.90;;;;;;;9.93;100.00;153908.59;5037994;28;20500;-83
2023/12/11 11:03:40;;;;;;;2.00;0.70;;;;;;;9.91;100.00;153904.69;5023963;28;21112;-83
2023/12/11 11:06:20;;;;;;;1.73;0.80;;;;;;;9.89;100.00;153898.22;5023556;28;20450;-82
2023/12/11 11:08:54;;;;;;;1.60;1.03;;;;;;;9.91;100.00;153903.38;5041188;28;20473;-83
2023/12/11 11:11:24;;;;;;;1.10;0.60;;;;;;;9.90;100.00;153900.81;5042088;28;20458;-83
2023/12/11 11:14:23;;;;;;;1.53;0.80;;;;;;;9.91;100.00;153903.38;5034013;28;20456;-84
2023/12/11 11:16:53;;;;;;;1.43;0.87;;;;;;;9.92;100.00;153906.00;5037509;28;20458;-83
2023/12/11 11:19:24;;;;;;;1.97;0.87;;;;;;;9.91;100.00;153904.69;5017222;28;20467;-83
2023/12/11 11:22:21;;;;;;;1.60;0.87;;;;;;;9.91;100.00;153903.38;5038434;28;20454;-83
2023/12/11 11:24:52;;;;;;;2.00;1.13;;;;;;;9.91;100.00;153903.38;5040890;28;20458;-83